sensor_id;sensor_type;location;lat;lon;timestamp;temperature;humidity
22544;DHT22;11438;52.044;8.716;2022-11-20T00:01:20;1.20;94.20
22544;DHT22;11438;52.044;8.716;2022-11-20T00:03:46;1.20;94.20
22544;DHT22;11438;52.044;8.716;2022-11-20T00:06:15;1.10;94.20
22544;DHT22;11438;52.044;8.716;2022-11-20T00:08:42;1.20;94.20
22544;DHT22;11438;52.044;8.716;2022-11-20T00:11:19;1.20;94.20
22544;DHT22;11438;52.044;8.716;2022-11-20T00:13:48;1.10;94.20
22544;DHT22;11438;52.044;8.716;2022-11-20T00:16:16;1.10;94.20
22544;DHT22;11438;52.044;8.716;2022-11-20T00:18:42;1.10;94.20
22544;DHT22;11438;52.044;8.716;2022-11-20T00:21:11;1.10;94.10
22544;DHT22;11438;52.044;8.716;2022-11-20T00:23:37;1.10;94.10
22544;DHT22;11438;52.044;8.716;2022-11-20T00:26:05;1.00;94.10
22544;DHT22;11438;52.044;8.716;2022-11-20T00:28:31;1.00;94.10
22544;DHT22;11438;52.044;8.716;2022-11-20T00:31:09;1.00;94.10
22544;DHT22;11438;52.044;8.716;2022-11-20T00:33:35;1.00;94.10
22544;DHT22;11438;52.044;8.716;2022-11-20T00:36:09;1.00;94.10
22544;DHT22;11438;52.044;8.716;2022-11-20T00:38:35;1.00;94.10
22544;DHT22;11438;52.044;8.716;2022-11-20T00:41:04;1.00;94.20
22544;DHT22;11438;52.044;8.716;2022-11-20T00:43:29;1.00;94.20
22544;DHT22;11438;52.044;8.716;2022-11-20T00:45:59;0.90;94.20
22544;DHT22;11438;52.044;8.716;2022-11-20T00:48:25;0.90;94.20
22544;DHT22;11438;52.044;8.716;2022-11-20T00:50:51;0.90;94.20
22544;DHT22;11438;52.044;8.716;2022-11-20T00:53:17;0.90;94.20
22544;DHT22;11438;52.044;8.716;2022-11-20T00:55:42;0.90;94.20
22544;DHT22;11438;52.044;8.716;2022-11-20T00:58:08;0.90;94.20
22544;DHT22;11438;52.044;8.716;2022-11-20T01:00:34;0.90;94.20
22544;DHT22;11438;52.044;8.716;2022-11-20T01:02:59;0.80;94.20
22544;DHT22;11438;52.044;8.716;2022-11-20T01:05:25;0.80;94.20
22544;DHT22;11438;52.044;8.716;2022-11-20T01:07:51;0.80;94.20
22544;DHT22;11438;52.044;8.716;2022-11-20T01:10:16;0.80;94.20
22544;DHT22;11438;52.044;8.716;2022-11-20T01:12:42;0.80;94.30
22544;DHT22;11438;52.044;8.716;2022-11-20T01:15:08;0.80;94.30
22544;DHT22;11438;52.044;8.716;2022-11-20T01:17:34;0.70;94.30
22544;DHT22;11438;52.044;8.716;2022-11-20T01:19:59;0.80;94.30
22544;DHT22;11438;52.044;8.716;2022-11-20T01:22:25;0.80;94.30
22544;DHT22;11438;52.044;8.716;2022-11-20T01:24:50;0.70;94.30
22544;DHT22;11438;52.044;8.716;2022-11-20T01:27:16;0.70;94.30
22544;DHT22;11438;52.044;8.716;2022-11-20T01:29:41;0.70;94.30
22544;DHT22;11438;52.044;8.716;2022-11-20T01:32:07;0.70;94.30
22544;DHT22;11438;52.044;8.716;2022-11-20T01:34:32;0.70;94.30
22544;DHT22;11438;52.044;8.716;2022-11-20T01:36:58;0.70;94.20
22544;DHT22;11438;52.044;8.716;2022-11-20T01:39:25;0.70;94.20
22544;DHT22;11438;52.044;8.716;2022-11-20T01:41:52;0.70;94.20
22544;DHT22;11438;52.044;8.716;2022-11-20T01:44:51;0.70;94.20
22544;DHT22;11438;52.044;8.716;2022-11-20T01:47:39;0.70;94.20
22544;DHT22;11438;52.044;8.716;2022-11-20T01:50:14;0.60;94.10
22544;DHT22;11438;52.044;8.716;2022-11-20T01:52:49;0.60;94.10
22544;DHT22;11438;52.044;8.716;2022-11-20T01:55:19;0.60;94.10
22544;DHT22;11438;52.044;8.716;2022-11-20T01:57:48;0.60;94.10
22544;DHT22;11438;52.044;8.716;2022-11-20T02:00:17;0.60;94.20
22544;DHT22;11438;52.044;8.716;2022-11-20T02:02:48;0.60;94.20
22544;DHT22;11438;52.044;8.716;2022-11-20T02:05:28;0.60;94.20
22544;DHT22;11438;52.044;8.716;2022-11-20T02:07:58;0.50;94.10
22544;DHT22;11438;52.044;8.716;2022-11-20T02:10:24;0.50;94.10
22544;DHT22;11438;52.044;8.716;2022-11-20T02:12:51;0.50;94.10
22544;DHT22;11438;52.044;8.716;2022-11-20T02:15:35;0.50;94.10
22544;DHT22;11438;52.044;8.716;2022-11-20T02:18:01;0.50;94.00
22544;DHT22;11438;52.044;8.716;2022-11-20T02:20:26;0.50;94.00
22544;DHT22;11438;52.044;8.716;2022-11-20T02:23:16;0.50;94.00
22544;DHT22;11438;52.044;8.716;2022-11-20T02:25:43;0.40;93.90
22544;DHT22;11438;52.044;8.716;2022-11-20T02:28:11;0.50;94.00
22544;DHT22;11438;52.044;8.716;2022-11-20T02:30:36;0.40;94.00
22544;DHT22;11438;52.044;8.716;2022-11-20T02:33:02;0.40;94.00
22544;DHT22;11438;52.044;8.716;2022-11-20T02:37:55;0.40;94.10
22544;DHT22;11438;52.044;8.716;2022-11-20T02:40:21;0.40;94.10
22544;DHT22;11438;52.044;8.716;2022-11-20T02:42:47;0.40;94.10
22544;DHT22;11438;52.044;8.716;2022-11-20T02:45:13;0.30;94.10
22544;DHT22;11438;52.044;8.716;2022-11-20T02:47:38;0.30;94.00
22544;DHT22;11438;52.044;8.716;2022-11-20T02:50:05;0.30;94.10
22544;DHT22;11438;52.044;8.716;2022-11-20T02:52:31;0.30;94.00
22544;DHT22;11438;52.044;8.716;2022-11-20T02:54:57;0.30;94.00
22544;DHT22;11438;52.044;8.716;2022-11-20T02:57:22;0.30;94.10
22544;DHT22;11438;52.044;8.716;2022-11-20T02:59:48;0.30;94.00
22544;DHT22;11438;52.044;8.716;2022-11-20T03:02:13;0.30;94.00
22544;DHT22;11438;52.044;8.716;2022-11-20T03:04:39;0.30;94.00
22544;DHT22;11438;52.044;8.716;2022-11-20T03:07:04;0.30;94.00
22544;DHT22;11438;52.044;8.716;2022-11-20T03:09:30;0.20;94.00
22544;DHT22;11438;52.044;8.716;2022-11-20T03:11:56;0.20;94.00
22544;DHT22;11438;52.044;8.716;2022-11-20T03:14:21;0.20;94.00
22544;DHT22;11438;52.044;8.716;2022-11-20T03:16:47;0.20;94.00
22544;DHT22;11438;52.044;8.716;2022-11-20T03:19:12;0.20;94.00
22544;DHT22;11438;52.044;8.716;2022-11-20T03:21:38;0.20;94.00
22544;DHT22;11438;52.044;8.716;2022-11-20T03:24:04;0.20;94.00
22544;DHT22;11438;52.044;8.716;2022-11-20T03:26:30;0.20;93.90
22544;DHT22;11438;52.044;8.716;2022-11-20T03:29:01;0.10;93.90
22544;DHT22;11438;52.044;8.716;2022-11-20T03:31:29;0.10;93.90
22544;DHT22;11438;52.044;8.716;2022-11-20T03:33:56;0.10;93.90
22544;DHT22;11438;52.044;8.716;2022-11-20T03:36:22;0.10;93.90
22544;DHT22;11438;52.044;8.716;2022-11-20T03:38:48;0.10;93.90
22544;DHT22;11438;52.044;8.716;2022-11-20T03:41:25;0.10;94.00
22544;DHT22;11438;52.044;8.716;2022-11-20T03:44:00;0.10;94.00
22544;DHT22;11438;52.044;8.716;2022-11-20T03:46:27;0.10;94.00
22544;DHT22;11438;52.044;8.716;2022-11-20T03:48:53;0.10;94.00
22544;DHT22;11438;52.044;8.716;2022-11-20T03:51:21;0.10;94.10
22544;DHT22;11438;52.044;8.716;2022-11-20T03:53:47;0.10;94.00
22544;DHT22;11438;52.044;8.716;2022-11-20T03:56:16;0.00;94.00
22544;DHT22;11438;52.044;8.716;2022-11-20T03:58:42;0.00;94.00
22544;DHT22;11438;52.044;8.716;2022-11-20T04:01:10;0.00;94.00
22544;DHT22;11438;52.044;8.716;2022-11-20T04:03:37;0.00;94.00
22544;DHT22;11438;52.044;8.716;2022-11-20T04:06:08;0.00;94.00
22544;DHT22;11438;52.044;8.716;2022-11-20T04:08:35;0.00;94.00
22544;DHT22;11438;52.044;8.716;2022-11-20T04:11:15;0.00;94.00
22544;DHT22;11438;52.044;8.716;2022-11-20T04:13:42;-0.10;94.40
22544;DHT22;11438;52.044;8.716;2022-11-20T04:16:09;-0.10;94.10
22544;DHT22;11438;52.044;8.716;2022-11-20T04:18:35;0.00;94.10
22544;DHT22;11438;52.044;8.716;2022-11-20T04:21:02;-0.10;94.10
22544;DHT22;11438;52.044;8.716;2022-11-20T04:23:27;-0.10;94.00
22544;DHT22;11438;52.044;8.716;2022-11-20T04:25:53;-0.10;94.40
22544;DHT22;11438;52.044;8.716;2022-11-20T04:28:19;-0.10;94.10
22544;DHT22;11438;52.044;8.716;2022-11-20T04:30:45;-0.10;94.00
22544;DHT22;11438;52.044;8.716;2022-11-20T04:33:10;-0.10;94.00
22544;DHT22;11438;52.044;8.716;2022-11-20T04:35:37;-0.10;94.00
22544;DHT22;11438;52.044;8.716;2022-11-20T04:38:03;-0.10;94.10
22544;DHT22;11438;52.044;8.716;2022-11-20T04:40:29;-0.10;94.00
22544;DHT22;11438;52.044;8.716;2022-11-20T04:42:55;-0.10;94.00
22544;DHT22;11438;52.044;8.716;2022-11-20T04:45:21;-0.20;94.00
22544;DHT22;11438;52.044;8.716;2022-11-20T04:47:47;-0.20;94.00
22544;DHT22;11438;52.044;8.716;2022-11-20T04:50:13;-0.20;94.00
22544;DHT22;11438;52.044;8.716;2022-11-20T04:52:38;-0.20;94.00
22544;DHT22;11438;52.044;8.716;2022-11-20T04:55:04;-0.20;94.00
22544;DHT22;11438;52.044;8.716;2022-11-20T04:57:30;-0.20;94.00
22544;DHT22;11438;52.044;8.716;2022-11-20T04:59:55;-0.20;94.00
22544;DHT22;11438;52.044;8.716;2022-11-20T05:02:21;-0.20;94.00
22544;DHT22;11438;52.044;8.716;2022-11-20T05:04:46;-0.20;94.00
22544;DHT22;11438;52.044;8.716;2022-11-20T05:07:12;-0.20;94.00
22544;DHT22;11438;52.044;8.716;2022-11-20T05:09:38;-0.20;94.00
22544;DHT22;11438;52.044;8.716;2022-11-20T05:12:04;-0.20;94.00
22544;DHT22;11438;52.044;8.716;2022-11-20T05:14:29;-0.20;94.00
22544;DHT22;11438;52.044;8.716;2022-11-20T05:16:55;-0.20;94.00
22544;DHT22;11438;52.044;8.716;2022-11-20T05:19:20;-0.20;94.00
22544;DHT22;11438;52.044;8.716;2022-11-20T05:21:46;-0.20;93.90
22544;DHT22;11438;52.044;8.716;2022-11-20T05:24:12;-0.20;93.90
22544;DHT22;11438;52.044;8.716;2022-11-20T05:26:37;-0.20;93.90
22544;DHT22;11438;52.044;8.716;2022-11-20T05:29:03;-0.20;93.90
22544;DHT22;11438;52.044;8.716;2022-11-20T05:31:29;-0.20;93.90
22544;DHT22;11438;52.044;8.716;2022-11-20T05:33:56;-0.30;93.90
22544;DHT22;11438;52.044;8.716;2022-11-20T05:36:22;-0.30;93.80
22544;DHT22;11438;52.044;8.716;2022-11-20T05:38:47;-0.30;93.80
22544;DHT22;11438;52.044;8.716;2022-11-20T05:41:15;-0.30;93.80
22544;DHT22;11438;52.044;8.716;2022-11-20T05:43:42;-0.30;93.80
22544;DHT22;11438;52.044;8.716;2022-11-20T05:46:10;-0.30;93.80
22544;DHT22;11438;52.044;8.716;2022-11-20T05:48:37;-0.40;93.80
22544;DHT22;11438;52.044;8.716;2022-11-20T05:51:05;-0.30;93.80
22544;DHT22;11438;52.044;8.716;2022-11-20T05:53:32;-0.40;93.80
22544;DHT22;11438;52.044;8.716;2022-11-20T05:56:03;-0.40;93.80
22544;DHT22;11438;52.044;8.716;2022-11-20T05:58:30;-0.40;93.80
22544;DHT22;11438;52.044;8.716;2022-11-20T06:01:25;-0.40;93.80
22544;DHT22;11438;52.044;8.716;2022-11-20T06:03:49;-0.40;93.80
22544;DHT22;11438;52.044;8.716;2022-11-20T06:06:16;-0.40;93.90
22544;DHT22;11438;52.044;8.716;2022-11-20T06:08:43;-0.40;93.90
22544;DHT22;11438;52.044;8.716;2022-11-20T06:11:11;-0.40;93.90
22544;DHT22;11438;52.044;8.716;2022-11-20T06:13:37;-0.50;93.90
22544;DHT22;11438;52.044;8.716;2022-11-20T06:16:03;-0.50;93.90
22544;DHT22;11438;52.044;8.716;2022-11-20T06:18:30;-0.50;94.00
22544;DHT22;11438;52.044;8.716;2022-11-20T06:21:05;-0.50;94.00
22544;DHT22;11438;52.044;8.716;2022-11-20T06:23:32;-0.50;94.00
22544;DHT22;11438;52.044;8.716;2022-11-20T06:26:02;-0.50;94.00
22544;DHT22;11438;52.044;8.716;2022-11-20T06:28:27;-0.50;94.00
22544;DHT22;11438;52.044;8.716;2022-11-20T06:30:53;-0.50;94.00
22544;DHT22;11438;52.044;8.716;2022-11-20T06:33:18;-0.50;94.00
22544;DHT22;11438;52.044;8.716;2022-11-20T06:35:44;-0.50;94.00
22544;DHT22;11438;52.044;8.716;2022-11-20T06:38:09;-0.50;94.00
22544;DHT22;11438;52.044;8.716;2022-11-20T06:40:35;-0.50;94.00
22544;DHT22;11438;52.044;8.716;2022-11-20T06:43:00;-0.50;94.00
22544;DHT22;11438;52.044;8.716;2022-11-20T06:45:26;-0.60;93.90
22544;DHT22;11438;52.044;8.716;2022-11-20T06:47:52;-0.60;93.90
22544;DHT22;11438;52.044;8.716;2022-11-20T06:50:17;-0.60;94.00
22544;DHT22;11438;52.044;8.716;2022-11-20T06:52:43;-0.60;94.00
22544;DHT22;11438;52.044;8.716;2022-11-20T06:55:08;-0.60;93.90
22544;DHT22;11438;52.044;8.716;2022-11-20T06:57:34;-0.60;93.90
22544;DHT22;11438;52.044;8.716;2022-11-20T06:59:59;-0.60;93.90
22544;DHT22;11438;52.044;8.716;2022-11-20T07:02:25;-0.60;93.90
22544;DHT22;11438;52.044;8.716;2022-11-20T07:04:50;-0.60;93.90
22544;DHT22;11438;52.044;8.716;2022-11-20T07:07:16;-0.60;94.00
22544;DHT22;11438;52.044;8.716;2022-11-20T07:09:41;-0.60;94.00
22544;DHT22;11438;52.044;8.716;2022-11-20T07:12:07;-0.60;94.00
22544;DHT22;11438;52.044;8.716;2022-11-20T07:14:33;-0.60;94.00
22544;DHT22;11438;52.044;8.716;2022-11-20T07:16:58;-0.60;94.00
22544;DHT22;11438;52.044;8.716;2022-11-20T07:19:24;-0.60;94.00
22544;DHT22;11438;52.044;8.716;2022-11-20T07:21:50;-0.60;94.10
22544;DHT22;11438;52.044;8.716;2022-11-20T07:24:15;-0.60;94.10
22544;DHT22;11438;52.044;8.716;2022-11-20T07:26:41;-0.60;94.10
22544;DHT22;11438;52.044;8.716;2022-11-20T07:29:06;-0.60;94.20
22544;DHT22;11438;52.044;8.716;2022-11-20T07:31:32;-0.60;94.20
22544;DHT22;11438;52.044;8.716;2022-11-20T07:33:57;-0.60;94.20
22544;DHT22;11438;52.044;8.716;2022-11-20T07:36:23;-0.60;94.30
22544;DHT22;11438;52.044;8.716;2022-11-20T07:38:48;-0.50;94.70
22544;DHT22;11438;52.044;8.716;2022-11-20T07:41:14;-0.50;94.30
22544;DHT22;11438;52.044;8.716;2022-11-20T07:43:40;-0.50;94.40
22544;DHT22;11438;52.044;8.716;2022-11-20T07:46:05;-0.50;94.40
22544;DHT22;11438;52.044;8.716;2022-11-20T07:48:31;-0.40;94.90
22544;DHT22;11438;52.044;8.716;2022-11-20T07:50:57;-0.40;95.00
22544;DHT22;11438;52.044;8.716;2022-11-20T07:53:23;-0.40;94.70
22544;DHT22;11438;52.044;8.716;2022-11-20T07:55:48;-0.30;94.80
22544;DHT22;11438;52.044;8.716;2022-11-20T07:58:14;-0.30;94.90
22544;DHT22;11438;52.044;8.716;2022-11-20T08:00:40;-0.30;94.90
22544;DHT22;11438;52.044;8.716;2022-11-20T08:03:06;-0.20;95.00
22544;DHT22;11438;52.044;8.716;2022-11-20T08:05:32;-0.20;95.10
22544;DHT22;11438;52.044;8.716;2022-11-20T08:07:58;-0.10;95.20
22544;DHT22;11438;52.044;8.716;2022-11-20T08:10:24;-0.10;95.30
22544;DHT22;11438;52.044;8.716;2022-11-20T08:12:51;-0.10;95.30
22544;DHT22;11438;52.044;8.716;2022-11-20T08:15:52;0.00;95.30
22544;DHT22;11438;52.044;8.716;2022-11-20T08:18:18;0.10;95.30
22544;DHT22;11438;52.044;8.716;2022-11-20T08:20:43;0.10;95.30
22544;DHT22;11438;52.044;8.716;2022-11-20T08:23:09;0.20;95.30
22544;DHT22;11438;52.044;8.716;2022-11-20T08:25:36;0.20;95.30
22544;DHT22;11438;52.044;8.716;2022-11-20T08:28:06;0.30;95.30
22544;DHT22;11438;52.044;8.716;2022-11-20T08:30:32;0.30;95.30
22544;DHT22;11438;52.044;8.716;2022-11-20T08:33:04;0.30;95.40
22544;DHT22;11438;52.044;8.716;2022-11-20T08:35:34;0.40;95.50
22544;DHT22;11438;52.044;8.716;2022-11-20T08:38:01;0.40;95.50
22544;DHT22;11438;52.044;8.716;2022-11-20T08:40:27;0.40;95.50
22544;DHT22;11438;52.044;8.716;2022-11-20T08:42:52;0.50;95.60
22544;DHT22;11438;52.044;8.716;2022-11-20T08:45:18;0.50;95.70
22544;DHT22;11438;52.044;8.716;2022-11-20T08:47:45;0.60;95.90
22544;DHT22;11438;52.044;8.716;2022-11-20T08:50:12;0.60;95.90
22544;DHT22;11438;52.044;8.716;2022-11-20T08:52:38;0.70;96.40
22544;DHT22;11438;52.044;8.716;2022-11-20T08:55:05;0.70;96.10
22544;DHT22;11438;52.044;8.716;2022-11-20T08:57:35;0.80;96.30
22544;DHT22;11438;52.044;8.716;2022-11-20T09:00:01;0.90;96.40
22544;DHT22;11438;52.044;8.716;2022-11-20T09:02:27;1.00;96.50
22544;DHT22;11438;52.044;8.716;2022-11-20T09:04:52;1.00;96.60
22544;DHT22;11438;52.044;8.716;2022-11-20T09:07:19;1.10;96.70
22544;DHT22;11438;52.044;8.716;2022-11-20T09:09:45;1.20;96.70
22544;DHT22;11438;52.044;8.716;2022-11-20T09:12:10;1.30;96.80
22544;DHT22;11438;52.044;8.716;2022-11-20T09:14:36;1.40;96.80
22544;DHT22;11438;52.044;8.716;2022-11-20T09:17:02;1.50;96.80
22544;DHT22;11438;52.044;8.716;2022-11-20T09:19:27;1.60;96.90
22544;DHT22;11438;52.044;8.716;2022-11-20T09:21:53;1.60;96.90
22544;DHT22;11438;52.044;8.716;2022-11-20T09:24:19;1.70;96.90
22544;DHT22;11438;52.044;8.716;2022-11-20T09:26:45;1.80;96.90
22544;DHT22;11438;52.044;8.716;2022-11-20T09:29:11;1.90;96.90
22544;DHT22;11438;52.044;8.716;2022-11-20T09:31:37;2.00;96.90
22544;DHT22;11438;52.044;8.716;2022-11-20T09:34:02;2.10;96.90
22544;DHT22;11438;52.044;8.716;2022-11-20T09:36:28;2.20;97.00
22544;DHT22;11438;52.044;8.716;2022-11-20T09:38:53;2.30;97.10
22544;DHT22;11438;52.044;8.716;2022-11-20T09:52:32;2.70;97.10
22544;DHT22;11438;52.044;8.716;2022-11-20T09:55:02;2.70;97.10
22544;DHT22;11438;52.044;8.716;2022-11-20T09:57:40;2.80;97.10
22544;DHT22;11438;52.044;8.716;2022-11-20T10:00:10;2.80;97.10
22544;DHT22;11438;52.044;8.716;2022-11-20T10:02:59;2.90;97.10
22544;DHT22;11438;52.044;8.716;2022-11-20T10:05:42;3.00;97.20
22544;DHT22;11438;52.044;8.716;2022-11-20T10:08:25;3.00;97.10
22544;DHT22;11438;52.044;8.716;2022-11-20T10:11:04;3.10;97.20
22544;DHT22;11438;52.044;8.716;2022-11-20T10:13:39;3.10;97.10
22544;DHT22;11438;52.044;8.716;2022-11-20T10:24:48;3.30;97.00
22544;DHT22;11438;52.044;8.716;2022-11-20T10:32:59;3.30;97.00
22544;DHT22;11438;52.044;8.716;2022-11-20T10:35:36;3.40;97.20
22544;DHT22;11438;52.044;8.716;2022-11-20T10:38:15;3.40;97.30
22544;DHT22;11438;52.044;8.716;2022-11-20T10:40:44;3.50;97.30
22544;DHT22;11438;52.044;8.716;2022-11-20T10:43:18;3.50;97.30
22544;DHT22;11438;52.044;8.716;2022-11-20T10:48:26;3.60;97.70
22544;DHT22;11438;52.044;8.716;2022-11-20T10:50:57;3.70;97.40
22544;DHT22;11438;52.044;8.716;2022-11-20T10:56:00;3.80;97.30
22544;DHT22;11438;52.044;8.716;2022-11-20T11:01:25;3.90;97.30
22544;DHT22;11438;52.044;8.716;2022-11-20T11:03:53;4.00;97.30
22544;DHT22;11438;52.044;8.716;2022-11-20T11:06:39;4.10;97.20
22544;DHT22;11438;52.044;8.716;2022-11-20T11:09:16;4.10;97.10
22544;DHT22;11438;52.044;8.716;2022-11-20T11:11:42;4.20;97.00
22544;DHT22;11438;52.044;8.716;2022-11-20T11:14:13;4.30;96.90
22544;DHT22;11438;52.044;8.716;2022-11-20T11:16:51;4.30;96.80
22544;DHT22;11438;52.044;8.716;2022-11-20T11:19:16;4.40;96.80
22544;DHT22;11438;52.044;8.716;2022-11-20T11:22:05;4.40;96.80
22544;DHT22;11438;52.044;8.716;2022-11-20T11:24:36;4.50;96.70
22544;DHT22;11438;52.044;8.716;2022-11-20T11:27:04;4.50;96.60
22544;DHT22;11438;52.044;8.716;2022-11-20T11:29:36;4.60;96.50
22544;DHT22;11438;52.044;8.716;2022-11-20T11:32:11;4.60;96.50
22544;DHT22;11438;52.044;8.716;2022-11-20T11:34:36;4.70;96.30
22544;DHT22;11438;52.044;8.716;2022-11-20T11:37:03;4.70;96.10
22544;DHT22;11438;52.044;8.716;2022-11-20T11:39:31;4.70;96.00
22544;DHT22;11438;52.044;8.716;2022-11-20T11:41:58;4.80;95.80
22544;DHT22;11438;52.044;8.716;2022-11-20T11:44:30;4.80;95.80
22544;DHT22;11438;52.044;8.716;2022-11-20T11:49:48;4.80;95.70
22544;DHT22;11438;52.044;8.716;2022-11-20T11:52:17;4.90;95.70
22544;DHT22;11438;52.044;8.716;2022-11-20T11:54:49;4.90;95.40
22544;DHT22;11438;52.044;8.716;2022-11-20T11:57:37;4.90;95.40
22544;DHT22;11438;52.044;8.716;2022-11-20T12:00:13;5.00;95.20
22544;DHT22;11438;52.044;8.716;2022-11-20T12:16:23;5.20;94.80
22544;DHT22;11438;52.044;8.716;2022-11-20T12:18:51;5.20;94.90
22544;DHT22;11438;52.044;8.716;2022-11-20T12:29:40;5.30;94.60
22544;DHT22;11438;52.044;8.716;2022-11-20T12:35:14;5.30;94.50
22544;DHT22;11438;52.044;8.716;2022-11-20T12:43:30;5.30;94.40
22544;DHT22;11438;52.044;8.716;2022-11-20T12:51:36;5.30;94.50
22544;DHT22;11438;52.044;8.716;2022-11-20T12:56:43;5.30;94.50
22544;DHT22;11438;52.044;8.716;2022-11-20T12:59:46;5.30;94.50
22544;DHT22;11438;52.044;8.716;2022-11-20T13:05:10;5.30;94.60
22544;DHT22;11438;52.044;8.716;2022-11-20T13:07:40;5.30;94.50
22544;DHT22;11438;52.044;8.716;2022-11-20T13:10:15;5.30;94.40
22544;DHT22;11438;52.044;8.716;2022-11-20T13:13:23;5.30;94.40
22544;DHT22;11438;52.044;8.716;2022-11-20T13:15:50;5.30;94.40
22544;DHT22;11438;52.044;8.716;2022-11-20T13:18:17;5.30;94.50
22544;DHT22;11438;52.044;8.716;2022-11-20T13:20:44;5.30;94.60
22544;DHT22;11438;52.044;8.716;2022-11-20T13:23:11;5.40;94.50
22544;DHT22;11438;52.044;8.716;2022-11-20T13:25:38;5.40;94.50
22544;DHT22;11438;52.044;8.716;2022-11-20T13:28:28;5.40;94.40
22544;DHT22;11438;52.044;8.716;2022-11-20T13:30:55;5.40;94.30
22544;DHT22;11438;52.044;8.716;2022-11-20T13:33:35;5.40;94.40
22544;DHT22;11438;52.044;8.716;2022-11-20T13:36:02;5.40;94.30
22544;DHT22;11438;52.044;8.716;2022-11-20T13:38:46;5.40;94.30
22544;DHT22;11438;52.044;8.716;2022-11-20T13:41:35;5.40;94.20
22544;DHT22;11438;52.044;8.716;2022-11-20T13:44:22;5.40;94.20
22544;DHT22;11438;52.044;8.716;2022-11-20T13:46:49;5.40;94.30
22544;DHT22;11438;52.044;8.716;2022-11-20T13:49:31;5.40;94.30
22544;DHT22;11438;52.044;8.716;2022-11-20T13:52:34;5.40;94.20
22544;DHT22;11438;52.044;8.716;2022-11-20T13:57:52;5.40;94.40
22544;DHT22;11438;52.044;8.716;2022-11-20T14:00:23;5.40;94.40
22544;DHT22;11438;52.044;8.716;2022-11-20T14:05:35;5.40;94.40
22544;DHT22;11438;52.044;8.716;2022-11-20T14:08:03;5.40;94.50
22544;DHT22;11438;52.044;8.716;2022-11-20T14:10:31;5.40;94.50
22544;DHT22;11438;52.044;8.716;2022-11-20T14:12:56;5.40;94.50
22544;DHT22;11438;52.044;8.716;2022-11-20T14:15:26;5.40;94.50
22544;DHT22;11438;52.044;8.716;2022-11-20T14:17:52;5.40;94.50
22544;DHT22;11438;52.044;8.716;2022-11-20T14:20:18;5.30;94.50
22544;DHT22;11438;52.044;8.716;2022-11-20T14:22:52;5.40;94.50
22544;DHT22;11438;52.044;8.716;2022-11-20T14:25:19;5.30;94.50
22544;DHT22;11438;52.044;8.716;2022-11-20T14:27:57;5.30;94.60
22544;DHT22;11438;52.044;8.716;2022-11-20T14:30:42;5.40;94.60
22544;DHT22;11438;52.044;8.716;2022-11-20T14:33:13;5.30;94.60
22544;DHT22;11438;52.044;8.716;2022-11-20T14:35:56;5.40;94.60
22544;DHT22;11438;52.044;8.716;2022-11-20T14:38:27;5.40;94.60
22544;DHT22;11438;52.044;8.716;2022-11-20T14:40:53;5.40;94.60
22544;DHT22;11438;52.044;8.716;2022-11-20T14:43:21;5.30;94.60
22544;DHT22;11438;52.044;8.716;2022-11-20T14:45:59;5.30;94.60
22544;DHT22;11438;52.044;8.716;2022-11-20T14:48:31;5.40;94.70
22544;DHT22;11438;52.044;8.716;2022-11-20T14:50:57;5.40;94.70
22544;DHT22;11438;52.044;8.716;2022-11-20T14:53:24;5.40;94.70
22544;DHT22;11438;52.044;8.716;2022-11-20T14:56:01;5.30;94.70
22544;DHT22;11438;52.044;8.716;2022-11-20T14:58:29;5.40;94.70
22544;DHT22;11438;52.044;8.716;2022-11-20T15:01:00;5.30;94.70
22544;DHT22;11438;52.044;8.716;2022-11-20T15:03:34;5.40;94.80
22544;DHT22;11438;52.044;8.716;2022-11-20T15:06:00;5.40;94.70
22544;DHT22;11438;52.044;8.716;2022-11-20T15:08:26;5.40;94.80
22544;DHT22;11438;52.044;8.716;2022-11-20T15:10:51;5.30;94.80
22544;DHT22;11438;52.044;8.716;2022-11-20T15:13:22;5.30;94.80
22544;DHT22;11438;52.044;8.716;2022-11-20T15:15:51;5.30;94.80
22544;DHT22;11438;52.044;8.716;2022-11-20T15:18:38;5.30;94.80
22544;DHT22;11438;52.044;8.716;2022-11-20T15:21:13;5.30;94.90
22544;DHT22;11438;52.044;8.716;2022-11-20T15:23:39;5.30;94.90
22544;DHT22;11438;52.044;8.716;2022-11-20T15:26:09;5.30;95.00
22544;DHT22;11438;52.044;8.716;2022-11-20T15:28:43;5.20;94.90
22544;DHT22;11438;52.044;8.716;2022-11-20T15:31:14;5.20;95.00
22544;DHT22;11438;52.044;8.716;2022-11-20T15:33:40;5.20;95.10
22544;DHT22;11438;52.044;8.716;2022-11-20T15:36:06;5.20;95.10
22544;DHT22;11438;52.044;8.716;2022-11-20T15:38:32;5.20;95.20
22544;DHT22;11438;52.044;8.716;2022-11-20T15:40:57;5.20;95.20
22544;DHT22;11438;52.044;8.716;2022-11-20T15:43:23;5.20;95.60
22544;DHT22;11438;52.044;8.716;2022-11-20T15:45:49;5.20;95.30
22544;DHT22;11438;52.044;8.716;2022-11-20T15:50:59;5.20;95.30
22544;DHT22;11438;52.044;8.716;2022-11-20T15:53:26;5.20;95.40
22544;DHT22;11438;52.044;8.716;2022-11-20T15:55:52;5.20;95.40
22544;DHT22;11438;52.044;8.716;2022-11-20T15:58:18;5.20;95.40
22544;DHT22;11438;52.044;8.716;2022-11-20T16:00:43;5.10;95.40
22544;DHT22;11438;52.044;8.716;2022-11-20T16:03:14;5.10;95.70
22544;DHT22;11438;52.044;8.716;2022-11-20T16:05:40;5.10;95.30
22544;DHT22;11438;52.044;8.716;2022-11-20T16:08:06;5.10;95.30
22544;DHT22;11438;52.044;8.716;2022-11-20T16:10:31;5.10;95.40
22544;DHT22;11438;52.044;8.716;2022-11-20T16:12:57;5.10;95.40
22544;DHT22;11438;52.044;8.716;2022-11-20T16:15:41;5.10;95.40
22544;DHT22;11438;52.044;8.716;2022-11-20T16:18:22;5.10;95.40
22544;DHT22;11438;52.044;8.716;2022-11-20T16:20:50;5.10;95.50
22544;DHT22;11438;52.044;8.716;2022-11-20T16:23:16;5.00;95.50
22544;DHT22;11438;52.044;8.716;2022-11-20T16:25:42;5.00;95.50
22544;DHT22;11438;52.044;8.716;2022-11-20T16:28:08;5.10;95.60
22544;DHT22;11438;52.044;8.716;2022-11-20T16:30:34;5.10;95.60
22544;DHT22;11438;52.044;8.716;2022-11-20T16:33:00;5.10;95.70
22544;DHT22;11438;52.044;8.716;2022-11-20T16:35:27;5.10;95.70
22544;DHT22;11438;52.044;8.716;2022-11-20T16:37:54;5.10;95.80
22544;DHT22;11438;52.044;8.716;2022-11-20T16:40:20;5.10;95.80
22544;DHT22;11438;52.044;8.716;2022-11-20T16:42:46;5.10;95.80
22544;DHT22;11438;52.044;8.716;2022-11-20T16:45:11;5.10;95.90
22544;DHT22;11438;52.044;8.716;2022-11-20T16:47:37;5.10;95.90
22544;DHT22;11438;52.044;8.716;2022-11-20T16:50:04;5.10;95.90
22544;DHT22;11438;52.044;8.716;2022-11-20T16:52:30;5.10;95.90
22544;DHT22;11438;52.044;8.716;2022-11-20T16:54:56;5.20;95.90
22544;DHT22;11438;52.044;8.716;2022-11-20T16:57:22;5.10;95.90
22544;DHT22;11438;52.044;8.716;2022-11-20T16:59:48;5.10;95.90
22544;DHT22;11438;52.044;8.716;2022-11-20T17:02:14;5.10;95.90
22544;DHT22;11438;52.044;8.716;2022-11-20T17:04:40;5.10;95.90
22544;DHT22;11438;52.044;8.716;2022-11-20T17:07:06;5.20;95.90
22544;DHT22;11438;52.044;8.716;2022-11-20T17:09:32;5.10;95.90
22544;DHT22;11438;52.044;8.716;2022-11-20T17:11:57;5.20;95.90
22544;DHT22;11438;52.044;8.716;2022-11-20T17:14:23;5.20;95.90
22544;DHT22;11438;52.044;8.716;2022-11-20T17:16:48;5.10;95.90
22544;DHT22;11438;52.044;8.716;2022-11-20T17:19:14;5.10;95.90
22544;DHT22;11438;52.044;8.716;2022-11-20T17:21:40;5.10;95.80